Time;durP1;ratioP1;P1;durP2;ratioP2;P2;SDS_P1;SDS_P2;PMS_P1;PMS_P2;Temp;Humidity;BMP_temperature;BMP_pressure;BME280_temperature;BME280_humidity;BME280_pressure;Samples;Min_cycle;Max_cycle;Signal;HPM_P1;HPM_P2
2023/05/27 00:01:02;;;;;;;15.10;4.00;;;9.80;99.90;;;;;;5017638;28;20067;-77
2023/05/27 00:03:28;;;;;;;13.43;4.15;;;9.80;99.90;;;;;;5030634;28;20037;-77
2023/05/27 00:05:53;;;;;;;15.18;4.00;;;9.70;99.90;;;;;;5027832;28;20049;-77
2023/05/27 00:08:19;;;;;;;16.20;4.55;;;9.70;99.90;;;;;;5024108;28;20090;-77
2023/05/27 00:10:45;;;;;;;11.50;4.03;;;9.80;99.90;;;;;;5033811;28;20504;-78
2023/05/27 00:13:10;;;;;;;12.65;4.15;;;9.70;99.90;;;;;;5028641;28;20041;-77
2023/05/27 00:15:38;;;;;;;13.77;4.18;;;9.70;99.90;;;;;;5018964;28;20464;-78
2023/05/27 00:18:03;;;;;;;12.77;3.80;;;9.70;99.90;;;;;;5026609;28;20091;-77
2023/05/27 00:20:30;;;;;;;13.73;3.80;;;9.60;99.90;;;;;;5024313;28;20440;-77
2023/05/27 00:22:56;;;;;;;13.77;4.20;;;9.50;99.90;;;;;;5029125;28;20064;-77
2023/05/27 00:25:22;;;;;;;12.23;3.35;;;9.40;99.90;;;;;;5035230;28;20053;-77
2023/05/27 00:27:49;;;;;;;13.38;3.80;;;9.40;99.90;;;;;;5030094;28;20054;-78
2023/05/27 00:30:15;;;;;;;11.45;3.70;;;9.30;99.90;;;;;;5065409;22;20056;-75
2023/05/27 00:32:41;;;;;;;15.23;4.90;;;9.30;99.90;;;;;;5049769;28;20485;-76
2023/05/27 00:35:07;;;;;;;14.25;4.40;;;9.20;99.90;;;;;;5027924;28;20037;-75
2023/05/27 00:37:33;;;;;;;11.65;4.10;;;9.10;99.90;;;;;;5035239;28;20119;-75
2023/05/27 00:39:59;;;;;;;13.90;3.90;;;9.10;99.90;;;;;;5047651;28;20083;-75
2023/05/27 00:42:25;;;;;;;16.05;4.00;;;9.00;99.90;;;;;;5049616;28;20392;-75
2023/05/27 00:44:51;;;;;;;11.43;4.50;;;9.00;99.90;;;;;;5043855;28;20037;-75
2023/05/27 00:47:17;;;;;;;11.23;4.22;;;9.00;99.90;;;;;;5043470;28;20116;-75
2023/05/27 00:49:44;;;;;;;12.40;3.80;;;9.00;99.90;;;;;;5048807;28;20116;-75
2023/05/27 00:52:10;;;;;;;18.20;4.10;;;8.90;99.90;;;;;;5049509;28;20045;-75
2023/05/27 00:54:36;;;;;;;11.60;4.13;;;8.90;99.90;;;;;;5048806;28;20059;-75
2023/05/27 00:57:02;;;;;;;13.35;4.32;;;8.90;99.90;;;;;;5041095;28;20048;-75
2023/05/27 00:59:28;;;;;;;16.98;4.40;;;8.80;99.90;;;;;;5040972;28;20500;-75
2023/05/27 01:01:54;;;;;;;16.10;4.90;;;8.80;99.90;;;;;;5041381;28;20129;-75
2023/05/27 01:04:20;;;;;;;10.32;3.97;;;8.80;99.90;;;;;;5042372;28;20088;-75
2023/05/27 01:07:05;;;;;;;14.55;4.63;;;8.80;99.90;;;;;;5048558;28;20060;-75
2023/05/27 01:09:48;;;;;;;13.75;4.00;;;8.70;99.90;;;;;;5046050;28;20553;-75
2023/05/27 01:12:35;;;;;;;13.38;3.80;;;8.70;99.90;;;;;;5031310;28;20060;-75
2023/05/27 01:15:05;;;;;;;12.05;3.70;;;8.70;99.90;;;;;;5035569;28;20425;-75
2023/05/27 01:17:32;;;;;;;13.10;3.67;;;8.60;99.90;;;;;;5049396;28;20044;-75
2023/05/27 01:20:00;;;;;;;12.73;4.38;;;8.60;99.90;;;;;;5035948;28;20147;-75
2023/05/27 01:22:30;;;;;;;11.10;3.80;;;8.60;99.90;;;;;;5043986;28;20460;-75
2023/05/27 01:24:55;;;;;;;17.35;4.28;;;8.50;99.90;;;;;;5040870;28;20033;-75
2023/05/27 01:27:24;;;;;;;12.55;3.88;;;8.50;99.90;;;;;;5039992;28;20513;-75
2023/05/27 01:29:51;;;;;;;14.13;4.85;;;8.50;99.90;;;;;;5049217;28;20122;-75
2023/05/27 01:32:25;;;;;;;17.92;4.35;;;8.50;99.90;;;;;;5048074;28;20366;-75
2023/05/27 01:34:57;;;;;;;14.57;4.82;;;8.50;99.90;;;;;;5036520;28;20133;-75
2023/05/27 01:37:25;;;;;;;15.85;4.90;;;8.60;99.90;;;;;;5052399;28;20041;-75
2023/05/27 01:39:51;;;;;;;14.95;4.63;;;8.50;99.90;;;;;;5050064;28;20044;-75
2023/05/27 01:42:18;;;;;;;15.40;4.63;;;8.50;99.90;;;;;;5046242;28;20048;-75
2023/05/27 01:44:46;;;;;;;13.00;4.13;;;8.50;99.90;;;;;;5047369;28;20440;-75
2023/05/27 01:47:12;;;;;;;19.30;4.60;;;8.50;99.90;;;;;;5044201;28;20040;-75
2023/05/27 01:49:37;;;;;;;13.02;4.55;;;8.40;99.90;;;;;;5049398;28;20029;-75
2023/05/27 01:52:03;;;;;;;14.35;4.50;;;8.40;99.90;;;;;;5044261;28;20567;-75
2023/05/27 01:54:29;;;;;;;11.60;3.95;;;8.40;99.90;;;;;;5052227;28;20045;-75
2023/05/27 01:56:54;;;;;;;12.38;4.35;;;8.40;99.90;;;;;;5042154;28;20049;-75
2023/05/27 01:59:20;;;;;;;14.80;4.43;;;8.30;99.90;;;;;;5033939;28;20123;-75
2023/05/27 02:01:45;;;;;;;16.70;4.53;;;8.30;99.90;;;;;;5048731;28;20055;-75
2023/05/27 02:04:11;;;;;;;11.57;4.13;;;8.20;99.90;;;;;;5029156;28;20048;-75
2023/05/27 02:06:37;;;;;;;14.40;4.18;;;8.20;99.90;;;;;;5047312;28;20041;-75
2023/05/27 02:09:03;;;;;;;14.00;4.45;;;8.20;99.90;;;;;;5051381;28;20457;-75
2023/05/27 02:11:29;;;;;;;13.68;4.80;;;8.20;99.90;;;;;;5043830;28;20052;-75
2023/05/27 02:13:55;;;;;;;14.93;4.75;;;8.10;99.90;;;;;;5043288;28;20196;-75
2023/05/27 02:16:21;;;;;;;11.70;4.43;;;8.10;99.90;;;;;;5051704;28;20041;-75
2023/05/27 02:18:50;;;;;;;13.68;4.40;;;8.10;99.90;;;;;;5042267;28;20040;-75
2023/05/27 02:21:16;;;;;;;13.32;4.18;;;8.00;99.90;;;;;;5025512;28;20494;-75
2023/05/27 02:23:41;;;;;;;17.40;4.43;;;8.00;99.90;;;;;;5051151;28;20079;-75
2023/05/27 02:26:07;;;;;;;13.27;4.97;;;8.00;99.90;;;;;;5039175;28;20025;-75
2023/05/27 02:28:32;;;;;;;13.27;4.90;;;8.00;99.90;;;;;;5051666;28;20040;-74
2023/05/27 02:30:59;;;;;;;13.52;4.70;;;8.00;99.90;;;;;;5045207;28;20052;-75
2023/05/27 02:33:25;;;;;;;13.43;4.57;;;8.00;99.90;;;;;;5043423;28;20033;-75
2023/05/27 02:35:50;;;;;;;12.63;4.63;;;8.00;99.90;;;;;;5045347;28;20044;-75
2023/05/27 02:38:16;;;;;;;11.15;4.57;;;8.00;99.90;;;;;;5044430;28;20049;-74
2023/05/27 02:40:42;;;;;;;13.23;4.32;;;8.00;99.90;;;;;;5049956;28;20476;-75
2023/05/27 02:43:08;;;;;;;13.05;4.55;;;8.00;99.90;;;;;;5051488;28;20122;-75
2023/05/27 02:45:34;;;;;;;12.65;4.68;;;8.00;99.90;;;;;;5049184;28;20041;-75
2023/05/27 02:48:01;;;;;;;17.98;5.30;;;8.10;99.90;;;;;;5041399;28;20036;-74
2023/05/27 02:50:27;;;;;;;17.67;4.75;;;8.10;99.90;;;;;;5042916;28;20059;-75
2023/05/27 02:52:52;;;;;;;13.57;4.57;;;8.10;99.90;;;;;;5044704;28;20036;-75
2023/05/27 02:55:18;;;;;;;16.88;5.35;;;8.10;99.90;;;;;;5047388;28;20064;-75
2023/05/27 02:57:44;;;;;;;15.48;4.93;;;8.10;99.90;;;;;;5044338;28;20401;-75
2023/05/27 03:00:11;;;;;;;16.13;4.80;;;8.10;99.90;;;;;;5051211;28;20408;-75
2023/05/27 03:02:37;;;;;;;18.05;5.18;;;8.10;99.90;;;;;;5041356;28;20087;-75
2023/05/27 03:05:03;;;;;;;14.98;5.10;;;8.10;99.90;;;;;;5039023;28;20045;-75
2023/05/27 03:07:29;;;;;;;13.88;4.90;;;8.10;99.90;;;;;;5042822;28;20041;-75
2023/05/27 03:09:56;;;;;;;17.90;4.97;;;8.10;99.90;;;;;;5041490;28;20501;-75
2023/05/27 03:12:21;;;;;;;15.60;4.43;;;8.10;99.90;;;;;;5044963;28;20477;-75
2023/05/27 03:14:47;;;;;;;14.25;4.82;;;8.10;99.90;;;;;;5047045;28;20044;-75
2023/05/27 03:17:13;;;;;;;16.88;4.85;;;8.10;99.90;;;;;;5041174;28;20045;-76
2023/05/27 03:19:38;;;;;;;13.43;4.53;;;8.10;99.90;;;;;;5042778;28;20052;-75
2023/05/27 03:22:04;;;;;;;18.25;5.35;;;8.10;99.90;;;;;;5042528;28;20119;-75
2023/05/27 03:24:30;;;;;;;14.63;4.68;;;8.10;99.90;;;;;;5047440;28;20051;-75
2023/05/27 03:26:55;;;;;;;19.13;5.82;;;8.10;99.90;;;;;;5050108;28;20032;-75
2023/05/27 03:29:21;;;;;;;14.27;4.70;;;8.10;99.90;;;;;;5044833;28;20037;-76
2023/05/27 03:31:47;;;;;;;16.83;4.97;;;8.10;99.90;;;;;;5030570;28;20066;-75
2023/05/27 03:34:13;;;;;;;18.77;4.82;;;8.10;99.90;;;;;;5043372;28;20041;-76
2023/05/27 03:36:38;;;;;;;19.05;5.10;;;8.10;99.90;;;;;;5033691;28;20527;-75
2023/05/27 03:39:04;;;;;;;16.50;5.10;;;8.20;99.90;;;;;;5048775;28;20041;-75
2023/05/27 03:41:33;;;;;;;17.00;4.88;;;8.30;99.90;;;;;;5050631;28;20588;-75
2023/05/27 03:43:58;;;;;;;15.63;4.50;;;8.30;99.90;;;;;;5039253;28;20045;-75
2023/05/27 03:46:24;;;;;;;16.83;4.60;;;8.30;99.90;;;;;;5041944;28;20029;-75
2023/05/27 03:48:49;;;;;;;17.13;4.68;;;8.30;99.90;;;;;;5041521;28;20041;-76
2023/05/27 03:51:15;;;;;;;21.05;5.13;;;8.40;99.90;;;;;;5045773;28;20421;-75
2023/05/27 03:53:40;;;;;;;19.65;4.95;;;8.40;99.90;;;;;;5038623;28;20033;-75
2023/05/27 03:56:06;;;;;;;15.38;5.10;;;8.50;99.90;;;;;;5045839;28;20040;-75
2023/05/27 03:58:32;;;;;;;16.95;4.97;;;8.50;99.90;;;;;;5050001;28;20033;-76
2023/05/27 04:00:57;;;;;;;17.42;5.07;;;8.60;99.90;;;;;;5039099;28;20044;-75
2023/05/27 04:03:23;;;;;;;15.77;4.90;;;8.60;99.90;;;;;;5044100;28;20058;-75
2023/05/27 04:05:49;;;;;;;15.82;5.45;;;8.70;99.90;;;;;;5049525;28;20099;-75
2023/05/27 04:08:14;;;;;;;15.93;5.03;;;8.70;99.90;;;;;;5050034;28;20064;-76
2023/05/27 04:10:40;;;;;;;17.50;5.45;;;8.70;99.90;;;;;;5040317;28;20559;-75
2023/05/27 04:13:05;;;;;;;17.27;4.93;;;8.80;99.90;;;;;;5049274;28;20586;-75
2023/05/27 04:15:31;;;;;;;18.50;5.07;;;8.90;99.90;;;;;;5026503;28;20037;-75
2023/05/27 04:17:57;;;;;;;15.25;5.57;;;8.90;99.90;;;;;;5034814;28;20428;-75
2023/05/27 04:20:23;;;;;;;15.38;5.10;;;8.90;99.90;;;;;;5040285;28;20045;-75
2023/05/27 04:22:49;;;;;;;20.30;4.80;;;9.00;99.90;;;;;;5047973;28;20463;-75
2023/05/27 04:25:15;;;;;;;18.83;5.10;;;9.00;99.90;;;;;;5049165;28;20041;-75
2023/05/27 04:27:41;;;;;;;20.98;6.40;;;9.10;99.90;;;;;;5042364;28;20036;-75
2023/05/27 04:30:07;;;;;;;15.60;4.80;;;9.10;99.90;;;;;;5016479;28;20041;-75
2023/05/27 04:32:37;;;;;;;16.30;4.80;;;9.20;99.90;;;;;;5042783;28;20042;-75
2023/05/27 04:35:08;;;;;;;17.67;5.13;;;9.20;99.90;;;;;;5048691;28;20128;-75
2023/05/27 04:37:35;;;;;;;18.35;4.95;;;9.20;99.90;;;;;;5044692;28;20508;-75
2023/05/27 04:40:03;;;;;;;17.05;5.15;;;9.30;99.90;;;;;;5045431;28;20049;-75
2023/05/27 04:42:29;;;;;;;20.77;4.70;;;9.30;99.90;;;;;;5037315;28;20386;-77
2023/05/27 04:44:54;;;;;;;16.67;5.40;;;9.40;99.90;;;;;;5047425;28;20099;-75
2023/05/27 04:47:21;;;;;;;20.40;5.72;;;9.10;99.90;;;;;;5042827;28;20469;-76
2023/05/27 04:49:47;;;;;;;18.45;4.85;;;9.40;99.90;;;;;;5039057;28;20393;-75
2023/05/27 04:52:13;;;;;;;18.38;5.20;;;9.50;99.90;;;;;;5033520;28;20116;-75
2023/05/27 04:54:38;;;;;;;14.82;4.50;;;9.50;99.90;;;;;;5049694;28;20133;-75
2023/05/27 04:57:04;;;;;;;15.15;4.93;;;9.40;99.90;;;;;;5048437;28;20041;-75
2023/05/27 04:59:45;;;;;;;12.65;4.78;;;9.40;99.90;;;;;;5049168;28;20504;-75
2023/05/27 05:02:21;;;;;;;16.77;4.97;;;9.40;99.90;;;;;;5052104;28;20029;-75
2023/05/27 05:04:47;;;;;;;17.52;5.10;;;9.40;99.90;;;;;;5047191;28;20041;-75
2023/05/27 05:07:13;;;;;;;18.92;5.57;;;9.50;99.90;;;;;;5036441;28;20029;-75
2023/05/27 05:09:38;;;;;;;14.85;5.63;;;9.40;99.90;;;;;;5044889;28;20497;-75
2023/05/27 05:12:06;;;;;;;18.67;5.47;;;9.50;99.90;;;;;;5049699;28;20033;-75
2023/05/27 05:14:31;;;;;;;15.32;5.60;;;9.50;99.90;;;;;;5047781;28;20041;-75
2023/05/27 05:16:57;;;;;;;25.58;6.28;;;9.50;99.90;;;;;;5052350;28;20055;-75
2023/05/27 05:19:22;;;;;;;21.75;5.78;;;9.50;99.90;;;;;;5053100;28;20037;-75
2023/05/27 05:21:48;;;;;;;17.45;5.47;;;9.50;99.90;;;;;;5051019;28;20053;-76
2023/05/27 05:24:13;;;;;;;17.92;5.47;;;9.50;99.90;;;;;;5028658;28;20096;-75
2023/05/27 05:26:39;;;;;;;15.02;5.15;;;9.60;99.90;;;;;;5048896;28;20043;-75
2023/05/27 05:29:05;;;;;;;21.17;5.40;;;9.60;99.90;;;;;;5041553;28;20040;-75
2023/05/27 05:31:31;;;;;;;22.65;5.25;;;9.60;99.90;;;;;;5048119;28;20056;-75
2023/05/27 05:33:56;;;;;;;19.55;5.28;;;9.60;99.90;;;;;;5052144;28;20037;-75
2023/05/27 05:36:22;;;;;;;18.50;5.30;;;9.70;99.90;;;;;;5053906;28;20508;-75
2023/05/27 05:38:48;;;;;;;16.13;4.80;;;9.70;99.90;;;;;;5047051;28;20037;-76
2023/05/27 05:41:14;;;;;;;16.48;5.32;;;9.70;99.90;;;;;;5052265;28;20041;-75
2023/05/27 05:43:39;;;;;;;20.88;4.88;;;9.80;99.90;;;;;;5048117;28;20116;-75
2023/05/27 05:46:05;;;;;;;16.70;5.28;;;9.80;99.90;;;;;;5049702;28;20036;-75
2023/05/27 05:48:30;;;;;;;21.13;5.05;;;9.80;99.90;;;;;;5040418;28;20033;-75
2023/05/27 05:50:56;;;;;;;21.40;5.72;;;10.00;99.90;;;;;;5049044;28;20438;-75
2023/05/27 05:53:21;;;;;;;15.27;5.22;;;9.90;99.90;;;;;;5040669;28;20092;-75
2023/05/27 05:55:47;;;;;;;25.08;5.47;;;10.00;99.90;;;;;;5048516;28;20039;-76
2023/05/27 05:58:12;;;;;;;21.95;5.00;;;10.00;99.90;;;;;;5051836;28;20436;-75
2023/05/27 06:00:38;;;;;;;21.33;5.32;;;10.00;99.90;;;;;;5027892;28;20107;-75
2023/05/27 06:03:04;;;;;;;18.27;5.40;;;10.00;99.90;;;;;;5051397;28;20136;-75
2023/05/27 06:05:29;;;;;;;27.80;6.32;;;11.10;99.90;;;;;;5051934;28;20037;-76
2023/05/27 06:07:55;;;;;;;21.30;6.45;;;10.10;99.90;;;;;;5035051;28;20037;-75
2023/05/27 06:10:20;;;;;;;18.77;4.95;;;10.10;99.90;;;;;;5035048;28;20033;-75
2023/05/27 06:12:47;;;;;;;19.77;5.35;;;10.10;99.90;;;;;;5021622;28;20049;-75
2023/05/27 06:15:12;;;;;;;23.85;5.88;;;10.20;99.90;;;;;;5045477;28;20548;-75
2023/05/27 06:17:38;;;;;;;22.48;6.10;;;10.20;99.90;;;;;;5046807;28;20124;-76
2023/05/27 06:20:04;;;;;;;29.48;7.18;;;10.30;99.90;;;;;;5045952;28;20072;-76
2023/05/27 06:22:29;;;;;;;15.93;5.18;;;10.30;99.90;;;;;;5046727;28;20044;-76
2023/05/27 06:24:55;;;;;;;20.35;5.25;;;10.30;99.90;;;;;;5041425;28;20048;-75
2023/05/27 06:27:21;;;;;;;20.60;4.78;;;10.40;99.90;;;;;;5051870;28;20043;-75
2023/05/27 06:29:46;;;;;;;21.73;5.45;;;10.40;99.90;;;;;;5069718;22;20040;-76
2023/05/27 06:32:12;;;;;;;20.65;5.10;;;10.40;99.90;;;;;;5049809;28;20032;-76
2023/05/27 06:34:37;;;;;;;15.25;5.10;;;10.50;99.90;;;;;;5019043;28;20047;-76
2023/05/27 06:37:03;;;;;;;25.80;6.20;;;10.50;99.90;;;;;;5034739;28;20051;-76
2023/05/27 06:39:29;;;;;;;21.30;5.03;;;10.60;99.90;;;;;;5037936;28;20380;-76
2023/05/27 06:41:54;;;;;;;13.57;4.85;;;10.60;99.90;;;;;;5046350;28;20041;-76
2023/05/27 06:44:20;;;;;;;23.42;5.47;;;10.70;99.90;;;;;;5072330;28;20033;-76
2023/05/27 06:46:45;;;;;;;16.55;4.80;;;10.70;99.90;;;;;;5049933;28;20256;-76
2023/05/27 06:49:11;;;;;;;23.95;5.00;;;10.70;99.90;;;;;;5044813;28;20043;-76
2023/05/27 06:51:37;;;;;;;23.75;5.50;;;10.80;99.90;;;;;;5054496;28;20460;-76
2023/05/27 06:54:02;;;;;;;24.40;4.88;;;11.20;99.90;;;;;;5072785;28;20039;-76
2023/05/27 06:56:28;;;;;;;21.35;5.15;;;10.90;99.90;;;;;;5054699;28;20037;-76
2023/05/27 06:58:54;;;;;;;17.30;5.50;;;10.90;99.90;;;;;;5045759;28;20037;-76
2023/05/27 07:01:19;;;;;;;16.77;4.97;;;11.00;99.90;;;;;;5033713;28;20044;-76
2023/05/27 07:03:45;;;;;;;25.08;4.88;;;11.00;99.90;;;;;;5037352;28;20032;-75
2023/05/27 07:06:11;;;;;;;23.15;5.22;;;11.00;99.90;;;;;;5050487;28;20493;-76
2023/05/27 07:08:36;;;;;;;23.35;4.93;;;11.10;99.90;;;;;;5034006;28;20032;-78
2023/05/27 07:11:02;;;;;;;18.05;4.85;;;11.10;99.90;;;;;;5054907;28;20047;-78
2023/05/27 07:13:28;;;;;;;22.90;5.07;;;11.80;99.90;;;;;;5053464;28;20039;-78
2023/05/27 07:15:53;;;;;;;16.58;5.10;;;11.20;99.90;;;;;;5037708;28;20055;-78
2023/05/27 07:18:19;;;;;;;21.67;5.30;;;11.40;99.90;;;;;;5058945;28;20072;-78
2023/05/27 07:20:44;;;;;;;21.10;5.30;;;11.30;99.90;;;;;;5051527;28;20227;-78
2023/05/27 07:23:10;;;;;;;19.98;5.05;;;11.30;99.90;;;;;;5053929;28;20134;-78
2023/05/27 07:25:36;;;;;;;20.00;5.07;;;11.40;99.90;;;;;;5037513;28;20031;-78
2023/05/27 07:28:01;;;;;;;18.48;5.00;;;11.50;99.90;;;;;;5054255;28;20036;-78
2023/05/27 07:30:27;;;;;;;18.95;5.22;;;11.50;99.90;;;;;;5025105;28;20539;-78
2023/05/27 07:32:54;;;;;;;19.83;5.55;;;11.60;99.90;;;;;;5061152;28;20045;-78
2023/05/27 07:35:19;;;;;;;23.05;5.70;;;11.60;99.90;;;;;;5042538;28;20488;-78
2023/05/27 07:37:45;;;;;;;15.73;5.53;;;11.70;99.90;;;;;;5056319;28;20036;-78
2023/05/27 07:40:11;;;;;;;17.05;4.97;;;11.80;99.90;;;;;;5053895;28;20484;-78
2023/05/27 07:42:36;;;;;;;24.52;6.00;;;12.10;99.90;;;;;;5053837;28;20041;-78
2023/05/27 07:45:03;;;;;;;18.23;5.00;;;11.90;99.90;;;;;;5043359;28;20045;-78
2023/05/27 07:47:28;;;;;;;16.00;4.97;;;12.00;99.90;;;;;;5045471;28;20073;-78
2023/05/27 07:49:54;;;;;;;20.23;5.47;;;12.00;99.90;;;;;;5045895;28;20419;-78
2023/05/27 07:52:19;;;;;;;22.05;5.45;;;12.00;99.90;;;;;;5035553;28;20044;-78
2023/05/27 07:54:45;;;;;;;18.00;5.55;;;12.10;99.90;;;;;;5048133;28;20037;-78
2023/05/27 07:57:11;;;;;;;22.45;5.93;;;12.10;99.90;;;;;;5049736;28;20036;-77
2023/05/27 07:59:36;;;;;;;22.77;5.63;;;12.20;99.90;;;;;;5048782;28;20525;-78
2023/05/27 08:02:02;;;;;;;22.45;5.78;;;12.20;99.90;;;;;;5053680;28;20028;-78
2023/05/27 08:04:28;;;;;;;18.27;5.70;;;12.30;99.90;;;;;;5064714;28;20036;-78
2023/05/27 08:06:53;;;;;;;19.92;5.50;;;12.30;99.90;;;;;;5026855;28;20397;-78
2023/05/27 08:09:19;;;;;;;22.38;5.93;;;12.30;99.90;;;;;;5052300;28;20143;-77
2023/05/27 08:11:44;;;;;;;21.40;5.65;;;12.40;99.90;;;;;;5045805;28;20045;-77
2023/05/27 08:14:12;;;;;;;22.02;5.35;;;12.60;99.90;;;;;;5062862;28;20044;-77
2023/05/27 08:16:37;;;;;;;19.83;5.97;;;12.70;99.90;;;;;;5064968;28;20116;-77
2023/05/27 08:19:03;;;;;;;18.70;6.10;;;12.90;99.90;;;;;;5053128;28;20151;-77
2023/05/27 08:21:29;;;;;;;22.00;6.05;;;13.10;99.90;;;;;;5028184;28;20086;-77
2023/05/27 08:23:55;;;;;;;18.23;4.93;;;13.70;99.90;;;;;;5044492;28;20041;-78
2023/05/27 08:26:20;;;;;;;21.52;5.57;;;13.60;99.90;;;;;;5036309;28;20039;-77
2023/05/27 08:28:46;;;;;;;23.45;6.03;;;13.90;99.90;;;;;;5050513;28;20071;-77
2023/05/27 08:31:11;;;;;;;24.48;6.10;;;14.10;99.90;;;;;;5052894;28;20135;-77
2023/05/27 08:33:37;;;;;;;17.80;5.95;;;14.40;99.90;;;;;;5045323;28;20036;-77
2023/05/27 08:36:03;;;;;;;19.42;5.68;;;14.70;99.90;;;;;;5052460;28;20090;-78
2023/05/27 08:38:29;;;;;;;20.77;5.82;;;15.00;99.90;;;;;;5052747;28;20052;-77
2023/05/27 08:40:55;;;;;;;20.23;6.10;;;15.30;99.90;;;;;;5054513;28;20044;-78
2023/05/27 08:43:22;;;;;;;17.33;5.30;;;15.70;99.90;;;;;;5068069;28;20056;-78
2023/05/27 08:45:49;;;;;;;20.90;5.75;;;15.90;99.90;;;;;;5061924;28;20132;-78
2023/05/27 08:48:15;;;;;;;19.60;5.80;;;16.00;99.90;;;;;;5045202;28;20408;-77
2023/05/27 08:50:41;;;;;;;22.20;5.65;;;16.20;99.90;;;;;;5053567;28;20040;-78
2023/05/27 08:53:08;;;;;;;18.05;5.28;;;16.30;99.90;;;;;;5071508;28;20040;-78
2023/05/27 08:55:34;;;;;;;18.67;5.32;;;16.50;99.90;;;;;;5062071;28;20045;-78
2023/05/27 08:58:01;;;;;;;20.77;6.22;;;16.80;99.90;;;;;;5058604;28;20048;-78
2023/05/27 09:00:27;;;;;;;16.33;5.35;;;16.90;99.90;;;;;;5047935;28;20044;-78
2023/05/27 09:02:56;;;;;;;17.67;5.63;;;17.20;99.90;;;;;;5045638;28;20040;-78
2023/05/27 09:05:22;;;;;;;16.73;5.03;;;17.30;99.90;;;;;;5046980;28;20544;-78
2023/05/27 09:07:48;;;;;;;15.75;5.38;;;17.40;99.90;;;;;;5034512;28;20087;-78
2023/05/27 09:10:14;;;;;;;19.70;5.40;;;17.90;99.90;;;;;;5052995;28;20114;-78
2023/05/27 09:12:44;;;;;;;15.55;5.28;;;17.70;99.90;;;;;;5044607;28;20032;-78
2023/05/27 09:15:10;;;;;;;18.30;5.90;;;18.00;99.90;;;;;;5045472;28;20043;-78
2023/05/27 09:17:44;;;;;;;17.67;5.25;;;17.80;99.90;;;;;;5034808;28;20041;-78
2023/05/27 09:20:13;;;;;;;14.88;5.10;;;17.90;99.90;;;;;;5041322;28;20044;-78
2023/05/27 09:22:40;;;;;;;15.20;5.38;;;18.10;99.90;;;;;;5056673;28;20029;-78
2023/05/27 09:25:07;;;;;;;20.13;5.50;;;18.20;99.90;;;;;;5049529;28;20473;-78
2023/05/27 09:27:32;;;;;;;16.02;6.03;;;18.40;99.90;;;;;;5050776;28;20059;-78
2023/05/27 09:30:06;;;;;;;15.52;5.68;;;18.70;99.90;;;;;;5069142;28;20497;-78
2023/05/27 09:32:32;;;;;;;17.60;5.22;;;19.10;99.90;;;;;;5025955;28;20454;-78
2023/05/27 09:35:00;;;;;;;16.75;5.40;;;19.00;99.90;;;;;;5049974;28;20124;-78
2023/05/27 09:37:34;;;;;;;12.98;5.25;;;19.20;99.90;;;;;;5030603;28;20069;-78
2023/05/27 09:40:04;;;;;;;17.38;5.85;;;19.10;99.90;;;;;;5030747;28;20097;-78
2023/05/27 09:42:50;;;;;;;19.20;5.57;;;19.80;99.90;;;;;;5036428;28;20043;-78
2023/05/27 09:45:17;;;;;;;16.27;5.18;;;19.50;99.90;;;;;;5068598;28;20044;-78
2023/05/27 09:47:51;;;;;;;18.40;5.90;;;19.90;99.90;;;;;;5038317;28;20136;-78
2023/05/27 09:50:18;;;;;;;19.73;5.60;;;19.90;99.90;;;;;;5053042;28;20400;-78
2023/05/27 09:52:44;;;;;;;14.90;5.38;;;19.80;99.90;;;;;;5050140;28;20072;-78
2023/05/27 09:55:12;;;;;;;15.73;5.13;;;19.90;99.90;;;;;;5055566;28;20036;-79
2023/05/27 09:57:39;;;;;;;15.60;5.57;;;20.10;99.90;;;;;;5065743;28;20043;-79
2023/05/27 10:00:17;;;;;;;18.20;5.78;;;20.30;99.60;;;;;;5049294;28;20127;-78
2023/05/27 10:02:46;;;;;;;16.15;5.30;;;20.40;99.20;;;;;;5057949;28;20396;-78
2023/05/27 10:05:14;;;;;;;16.33;5.18;;;20.50;98.80;;;;;;5058467;28;20048;-78
2023/05/27 10:07:45;;;;;;;20.67;6.93;;;20.50;98.50;;;;;;5053234;28;20441;-78
2023/05/27 10:10:18;;;;;;;16.77;5.53;;;20.50;98.20;;;;;;5048294;28;20032;-79
2023/05/27 10:12:46;;;;;;;17.48;5.63;;;20.80;98.30;;;;;;5057254;28;20037;-78
2023/05/27 10:15:22;;;;;;;12.25;4.68;;;20.70;97.90;;;;;;5027042;28;20033;-79
2023/05/27 10:17:55;;;;;;;15.77;5.55;;;20.90;96.60;;;;;;5031973;28;20126;-79
2023/05/27 10:20:41;;;;;;;15.00;5.70;;;20.90;96.80;;;;;;5055918;28;20076;-78
2023/05/27 10:23:18;;;;;;;13.75;5.50;;;21.00;95.90;;;;;;5038461;28;20392;-78
2023/05/27 10:25:52;;;;;;;14.52;5.72;;;21.00;96.50;;;;;;5029348;28;20507;-78
2023/05/27 10:28:32;;;;;;;16.42;5.75;;;21.10;96.60;;;;;;5055922;28;20484;-78
2023/05/27 10:31:09;;;;;;;17.00;5.78;;;21.10;96.00;;;;;;5047633;28;20450;-78
2023/05/27 10:33:37;;;;;;;14.55;5.30;;;21.20;96.00;;;;;;5056431;28;20056;-78
2023/05/27 10:36:11;;;;;;;14.02;5.13;;;21.30;96.10;;;;;;5038467;28;20041;-78
2023/05/27 10:38:37;;;;;;;17.05;5.40;;;21.50;94.90;;;;;;5044260;28;20037;-79
2023/05/27 10:41:05;;;;;;;16.02;5.82;;;21.20;95.10;;;;;;5049504;28;20036;-79
2023/05/27 10:43:33;;;;;;;15.50;5.35;;;21.20;95.20;;;;;;5057796;28;20049;-79
2023/05/27 10:46:09;;;;;;;13.77;5.15;;;21.30;95.50;;;;;;5062339;28;20363;-79
2023/05/27 10:48:37;;;;;;;13.75;5.35;;;21.40;94.90;;;;;;5036392;28;20033;-79
2023/05/27 10:51:02;;;;;;;15.10;5.57;;;21.70;95.30;;;;;;5029056;28;20417;-79
2023/05/27 10:53:34;;;;;;;14.30;5.47;;;21.90;95.10;;;;;;5049319;28;20040;-79
2023/05/27 10:56:00;;;;;;;15.93;5.38;;;22.00;94.50;;;;;;5057814;28;20068;-79
2023/05/27 10:58:27;;;;;;;12.80;5.35;;;22.10;94.00;;;;;;5065447;28;20041;-79
2023/05/27 11:00:54;;;;;;;15.02;5.57;;;22.20;93.80;;;;;;5055402;28;20040;-78
2023/05/27 11:03:30;;;;;;;17.95;5.95;;;22.10;93.30;;;;;;5064039;28;20037;-79
2023/05/27 11:06:00;;;;;;;14.38;5.32;;;22.50;92.50;;;;;;5051132;28;20049;-79
2023/05/27 11:08:26;;;;;;;17.17;5.70;;;22.50;92.30;;;;;;5048098;28;20550;-78
2023/05/27 11:11:05;;;;;;;13.02;4.78;;;22.60;92.60;;;;;;5047359;28;20041;-78
2023/05/27 11:13:45;;;;;;;14.00;4.53;;;22.70;92.20;;;;;;5037519;28;20040;-79
2023/05/27 11:16:12;;;;;;;14.40;5.50;;;22.80;91.50;;;;;;5056542;28;20086;-79
2023/05/27 11:18:46;;;;;;;12.70;5.20;;;23.00;91.90;;;;;;5045614;28;20075;-79
2023/05/27 11:21:12;;;;;;;14.85;5.00;;;23.00;90.20;;;;;;5057152;28;20052;-79
2023/05/27 11:23:39;;;;;;;14.32;5.07;;;23.00;91.00;;;;;;5051857;28;20060;-79
2023/05/27 11:26:12;;;;;;;13.65;5.25;;;23.10;90.80;;;;;;5047374;28;20048;-79
2023/05/27 11:28:38;;;;;;;13.40;4.32;;;23.10;89.20;;;;;;5067312;28;20064;-79
2023/05/27 11:31:04;;;;;;;14.70;5.57;;;23.40;89.00;;;;;;5057143;28;20049;-79
2023/05/27 11:33:32;;;;;;;12.52;5.60;;;23.30;88.00;;;;;;5070332;28;20063;-79
2023/05/27 11:36:06;;;;;;;17.00;5.72;;;23.30;87.20;;;;;;5065881;28;20052;-79
2023/05/27 11:38:46;;;;;;;13.15;4.88;;;23.30;86.20;;;;;;5053672;28;20111;-79
2023/05/27 11:41:11;;;;;;;16.48;5.43;;;23.40;85.90;;;;;;5047103;28;20048;-79
2023/05/27 11:44:06;;;;;;;14.05;5.00;;;23.40;86.30;;;;;;5036228;28;20507;-78
2023/05/27 11:46:42;;;;;;;13.07;4.63;;;23.60;85.60;;;;;;5042119;28;20110;-79
2023/05/27 11:49:10;;;;;;;12.25;4.75;;;23.60;85.30;;;;;;5039925;28;20068;-79
2023/05/27 11:51:49;;;;;;;12.82;5.07;;;23.70;84.80;;;;;;5054833;28;20036;-79
2023/05/27 11:54:19;;;;;;;13.38;5.60;;;23.70;82.50;;;;;;5069749;28;20044;-79
2023/05/27 11:56:45;;;;;;;14.63;4.95;;;23.80;83.50;;;;;;5062448;28;20036;-78
2023/05/27 11:59:10;;;;;;;14.30;5.13;;;23.90;83.20;;;;;;5018018;28;20033;-79
2023/05/27 12:01:36;;;;;;;14.50;4.93;;;23.90;83.10;;;;;;5046427;28;20374;-79
2023/05/27 12:04:02;;;;;;;11.07;4.72;;;24.00;82.90;;;;;;5032547;28;20491;-79
2023/05/27 12:06:28;;;;;;;12.27;5.05;;;24.10;82.90;;;;;;5050941;28;20133;-79
2023/05/27 12:08:53;;;;;;;11.43;4.85;;;24.10;82.00;;;;;;5049972;28;20037;-79
2023/05/27 12:11:19;;;;;;;10.80;4.35;;;24.30;81.80;;;;;;5044945;28;20033;-79
2023/05/27 12:13:44;;;;;;;13.40;4.82;;;24.10;80.80;;;;;;5026962;28;20040;-78
2023/05/27 12:16:11;;;;;;;16.00;5.38;;;24.10;80.50;;;;;;5036701;28;20045;-79
2023/05/27 12:18:36;;;;;;;12.90;5.13;;;24.10;80.40;;;;;;5029457;28;20067;-78
2023/05/27 12:21:02;;;;;;;14.68;5.35;;;24.10;80.40;;;;;;5053951;28;20480;-79
2023/05/27 12:23:28;;;;;;;15.20;5.25;;;24.10;80.50;;;;;;5037171;28;20071;-79
2023/05/27 12:25:54;;;;;;;12.98;5.30;;;24.10;79.80;;;;;;5048728;28;20045;-78
2023/05/27 12:28:19;;;;;;;15.15;5.78;;;24.20;80.10;;;;;;5043251;28;20166;-78
2023/05/27 12:30:46;;;;;;;12.80;4.90;;;24.20;79.50;;;;;;5057086;22;20069;-75
2023/05/27 12:33:11;;;;;;;14.95;5.70;;;24.20;78.30;;;;;;5009159;28;20049;-75
2023/05/27 12:35:38;;;;;;;12.35;4.97;;;24.30;77.70;;;;;;4997476;28;20489;-75
2023/05/27 12:38:03;;;;;;;15.93;5.57;;;24.30;76.80;;;;;;5027307;28;20045;-75
2023/05/27 12:40:29;;;;;;;13.07;5.38;;;24.30;77.00;;;;;;5006714;28;20041;-75